sensor_id;sensor_type;location;lat;lon;timestamp;P1;durP1;ratioP1;P2;durP2;ratioP2
9254;SDS011;4663;49.120;9.730;2023-11-19T00:01:07;3.33;;;2.93;;
9254;SDS011;4663;49.120;9.730;2023-11-19T00:03:32;4.90;;;3.80;;
9254;SDS011;4663;49.120;9.730;2023-11-19T00:05:58;5.93;;;2.97;;
9254;SDS011;4663;49.120;9.730;2023-11-19T00:08:24;6.87;;;3.07;;
9254;SDS011;4663;49.120;9.730;2023-11-19T00:10:50;4.37;;;3.40;;
9254;SDS011;4663;49.120;9.730;2023-11-19T00:13:16;5.13;;;3.50;;
9254;SDS011;4663;49.120;9.730;2023-11-19T00:15:41;3.93;;;3.40;;
9254;SDS011;4663;49.120;9.730;2023-11-19T00:18:07;4.90;;;3.70;;
9254;SDS011;4663;49.120;9.730;2023-11-19T00:20:32;3.80;;;3.10;;
9254;SDS011;4663;49.120;9.730;2023-11-19T00:22:57;5.17;;;3.13;;
9254;SDS011;4663;49.120;9.730;2023-11-19T00:25:23;4.13;;;3.37;;
9254;SDS011;4663;49.120;9.730;2023-11-19T00:27:49;7.43;;;3.17;;
9254;SDS011;4663;49.120;9.730;2023-11-19T00:30:15;4.20;;;3.43;;
9254;SDS011;4663;49.120;9.730;2023-11-19T00:32:41;5.47;;;3.00;;
9254;SDS011;4663;49.120;9.730;2023-11-19T00:35:07;7.13;;;3.37;;
9254;SDS011;4663;49.120;9.730;2023-11-19T00:37:35;7.17;;;3.07;;
9254;SDS011;4663;49.120;9.730;2023-11-19T00:40:01;6.63;;;3.33;;
9254;SDS011;4663;49.120;9.730;2023-11-19T00:42:30;3.80;;;3.33;;
9254;SDS011;4663;49.120;9.730;2023-11-19T00:44:56;6.27;;;3.70;;
9254;SDS011;4663;49.120;9.730;2023-11-19T00:47:22;5.03;;;3.70;;
9254;SDS011;4663;49.120;9.730;2023-11-19T00:49:48;5.13;;;3.23;;
9254;SDS011;4663;49.120;9.730;2023-11-19T00:52:14;7.30;;;3.47;;
9254;SDS011;4663;49.120;9.730;2023-11-19T00:54:40;4.83;;;3.67;;
9254;SDS011;4663;49.120;9.730;2023-11-19T00:57:05;5.50;;;3.30;;
9254;SDS011;4663;49.120;9.730;2023-11-19T00:59:31;7.53;;;3.80;;
9254;SDS011;4663;49.120;9.730;2023-11-19T01:01:56;6.77;;;4.30;;
9254;SDS011;4663;49.120;9.730;2023-11-19T01:04:21;8.53;;;4.90;;
9254;SDS011;4663;49.120;9.730;2023-11-19T01:06:47;10.27;;;5.30;;
9254;SDS011;4663;49.120;9.730;2023-11-19T01:09:12;6.57;;;5.03;;
9254;SDS011;4663;49.120;9.730;2023-11-19T01:11:37;6.33;;;4.90;;
9254;SDS011;4663;49.120;9.730;2023-11-19T01:14:04;9.20;;;5.20;;
9254;SDS011;4663;49.120;9.730;2023-11-19T01:16:29;9.20;;;5.37;;
9254;SDS011;4663;49.120;9.730;2023-11-19T01:18:55;8.27;;;5.07;;
9254;SDS011;4663;49.120;9.730;2023-11-19T01:21:21;10.63;;;4.60;;
9254;SDS011;4663;49.120;9.730;2023-11-19T01:23:47;6.43;;;4.00;;
9254;SDS011;4663;49.120;9.730;2023-11-19T01:26:12;6.73;;;4.03;;
9254;SDS011;4663;49.120;9.730;2023-11-19T01:28:38;6.07;;;3.80;;
9254;SDS011;4663;49.120;9.730;2023-11-19T01:31:05;5.87;;;4.43;;
9254;SDS011;4663;49.120;9.730;2023-11-19T01:33:33;5.53;;;3.90;;
9254;SDS011;4663;49.120;9.730;2023-11-19T01:36:00;5.27;;;3.90;;
9254;SDS011;4663;49.120;9.730;2023-11-19T01:38:25;5.47;;;3.70;;
9254;SDS011;4663;49.120;9.730;2023-11-19T01:40:55;4.57;;;3.57;;
9254;SDS011;4663;49.120;9.730;2023-11-19T01:43:34;6.43;;;4.07;;
9254;SDS011;4663;49.120;9.730;2023-11-19T01:46:04;5.17;;;3.80;;
9254;SDS011;4663;49.120;9.730;2023-11-19T01:48:33;7.47;;;3.43;;
9254;SDS011;4663;49.120;9.730;2023-11-19T01:51:01;6.20;;;3.67;;
9254;SDS011;4663;49.120;9.730;2023-11-19T01:53:27;5.20;;;3.87;;
9254;SDS011;4663;49.120;9.730;2023-11-19T01:55:54;11.43;;;3.40;;
9254;SDS011;4663;49.120;9.730;2023-11-19T01:58:19;6.37;;;3.57;;
9254;SDS011;4663;49.120;9.730;2023-11-19T02:00:45;3.80;;;3.10;;
9254;SDS011;4663;49.120;9.730;2023-11-19T02:03:11;6.95;;;3.35;;
9254;SDS011;4663;49.120;9.730;2023-11-19T02:05:37;5.40;;;3.25;;
9254;SDS011;4663;49.120;9.730;2023-11-19T02:08:05;6.95;;;3.15;;
9254;SDS011;4663;49.120;9.730;2023-11-19T02:10:30;4.77;;;2.90;;
9254;SDS011;4663;49.120;9.730;2023-11-19T02:12:57;4.77;;;2.77;;
9254;SDS011;4663;49.120;9.730;2023-11-19T02:15:23;4.20;;;2.92;;
9254;SDS011;4663;49.120;9.730;2023-11-19T02:17:49;7.97;;;2.97;;
9254;SDS011;4663;49.120;9.730;2023-11-19T02:20:16;3.67;;;2.80;;
9254;SDS011;4663;49.120;9.730;2023-11-19T02:22:45;5.77;;;2.60;;
9254;SDS011;4663;49.120;9.730;2023-11-19T02:25:13;7.17;;;2.77;;
9254;SDS011;4663;49.120;9.730;2023-11-19T02:30:20;3.37;;;2.53;;
9254;SDS011;4663;49.120;9.730;2023-11-19T02:32:46;6.30;;;2.70;;
9254;SDS011;4663;49.120;9.730;2023-11-19T02:35:13;7.30;;;2.40;;
9254;SDS011;4663;49.120;9.730;2023-11-19T02:37:38;10.50;;;5.30;;
9254;SDS011;4663;49.120;9.730;2023-11-19T02:40:04;14.97;;;6.10;;
9254;SDS011;4663;49.120;9.730;2023-11-19T02:42:30;6.13;;;4.47;;
9254;SDS011;4663;49.120;9.730;2023-11-19T02:44:56;5.78;;;4.32;;
9254;SDS011;4663;49.120;9.730;2023-11-19T02:47:22;5.73;;;3.80;;
9254;SDS011;4663;49.120;9.730;2023-11-19T02:49:49;12.23;;;5.33;;
9254;SDS011;4663;49.120;9.730;2023-11-19T02:52:15;14.90;;;5.63;;
9254;SDS011;4663;49.120;9.730;2023-11-19T02:54:40;13.13;;;5.47;;
9254;SDS011;4663;49.120;9.730;2023-11-19T02:57:07;11.90;;;5.82;;
9254;SDS011;4663;49.120;9.730;2023-11-19T02:59:35;9.77;;;5.00;;
9254;SDS011;4663;49.120;9.730;2023-11-19T03:02:07;7.33;;;4.67;;
9254;SDS011;4663;49.120;9.730;2023-11-19T03:04:36;3.80;;;3.20;;
9254;SDS011;4663;49.120;9.730;2023-11-19T03:07:01;5.33;;;2.80;;
9254;SDS011;4663;49.120;9.730;2023-11-19T03:09:27;4.22;;;2.90;;
9254;SDS011;4663;49.120;9.730;2023-11-19T03:11:54;3.23;;;2.70;;
9254;SDS011;4663;49.120;9.730;2023-11-19T03:14:19;9.13;;;2.90;;
9254;SDS011;4663;49.120;9.730;2023-11-19T03:16:45;5.07;;;3.00;;
9254;SDS011;4663;49.120;9.730;2023-11-19T03:19:13;6.07;;;2.60;;
9254;SDS011;4663;49.120;9.730;2023-11-19T03:21:40;2.80;;;2.38;;
9254;SDS011;4663;49.120;9.730;2023-11-19T03:24:05;4.43;;;2.50;;
9254;SDS011;4663;49.120;9.730;2023-11-19T03:26:31;2.67;;;2.27;;
9254;SDS011;4663;49.120;9.730;2023-11-19T03:28:58;2.93;;;2.23;;
9254;SDS011;4663;49.120;9.730;2023-11-19T03:31:24;5.72;;;2.65;;
9254;SDS011;4663;49.120;9.730;2023-11-19T03:33:50;3.90;;;2.30;;
9254;SDS011;4663;49.120;9.730;2023-11-19T03:36:15;3.13;;;2.27;;
9254;SDS011;4663;49.120;9.730;2023-11-19T03:38:40;3.55;;;2.13;;
9254;SDS011;4663;49.120;9.730;2023-11-19T03:41:16;4.70;;;2.47;;
9254;SDS011;4663;49.120;9.730;2023-11-19T03:43:42;3.45;;;1.73;;
9254;SDS011;4663;49.120;9.730;2023-11-19T03:46:17;6.10;;;1.90;;
9254;SDS011;4663;49.120;9.730;2023-11-19T03:48:46;4.07;;;1.20;;
9254;SDS011;4663;49.120;9.730;2023-11-19T03:51:13;3.47;;;1.17;;
9254;SDS011;4663;49.120;9.730;2023-11-19T03:53:45;2.60;;;1.30;;
9254;SDS011;4663;49.120;9.730;2023-11-19T03:56:10;1.27;;;0.87;;
9254;SDS011;4663;49.120;9.730;2023-11-19T03:58:37;1.95;;;0.98;;
9254;SDS011;4663;49.120;9.730;2023-11-19T04:01:03;1.43;;;0.90;;
9254;SDS011;4663;49.120;9.730;2023-11-19T04:03:29;2.85;;;1.00;;
9254;SDS011;4663;49.120;9.730;2023-11-19T04:05:55;0.80;;;0.80;;
9254;SDS011;4663;49.120;9.730;2023-11-19T04:08:21;1.77;;;0.80;;
9254;SDS011;4663;49.120;9.730;2023-11-19T04:10:46;0.70;;;0.70;;
9254;SDS011;4663;49.120;9.730;2023-11-19T04:13:12;2.13;;;0.70;;
9254;SDS011;4663;49.120;9.730;2023-11-19T04:15:37;0.63;;;0.60;;
9254;SDS011;4663;49.120;9.730;2023-11-19T04:18:03;0.63;;;0.60;;
9254;SDS011;4663;49.120;9.730;2023-11-19T04:20:28;0.57;;;0.57;;
9254;SDS011;4663;49.120;9.730;2023-11-19T04:22:53;0.60;;;0.60;;
9254;SDS011;4663;49.120;9.730;2023-11-19T04:25:19;0.70;;;0.70;;
9254;SDS011;4663;49.120;9.730;2023-11-19T04:27:44;0.75;;;0.75;;
9254;SDS011;4663;49.120;9.730;2023-11-19T04:30:10;0.85;;;0.75;;
9254;SDS011;4663;49.120;9.730;2023-11-19T04:32:36;0.75;;;0.60;;
9254;SDS011;4663;49.120;9.730;2023-11-19T04:35:02;1.02;;;0.70;;
9254;SDS011;4663;49.120;9.730;2023-11-19T04:37:28;2.78;;;0.65;;
9254;SDS011;4663;49.120;9.730;2023-11-19T04:39:54;0.90;;;0.80;;
9254;SDS011;4663;49.120;9.730;2023-11-19T04:42:21;1.13;;;0.98;;
9254;SDS011;4663;49.120;9.730;2023-11-19T04:44:47;1.38;;;0.95;;
9254;SDS011;4663;49.120;9.730;2023-11-19T04:47:12;1.27;;;0.60;;
9254;SDS011;4663;49.120;9.730;2023-11-19T04:49:41;0.80;;;0.80;;
9254;SDS011;4663;49.120;9.730;2023-11-19T04:52:10;0.60;;;0.60;;
9254;SDS011;4663;49.120;9.730;2023-11-19T04:54:40;0.80;;;0.80;;
9254;SDS011;4663;49.120;9.730;2023-11-19T04:57:07;1.67;;;0.70;;
9254;SDS011;4663;49.120;9.730;2023-11-19T04:59:34;1.05;;;0.95;;
9254;SDS011;4663;49.120;9.730;2023-11-19T05:02:00;1.42;;;1.02;;
9254;SDS011;4663;49.120;9.730;2023-11-19T05:04:25;1.23;;;1.00;;
9254;SDS011;4663;49.120;9.730;2023-11-19T05:06:51;3.83;;;1.17;;
9254;SDS011;4663;49.120;9.730;2023-11-19T05:09:16;1.65;;;0.90;;
9254;SDS011;4663;49.120;9.730;2023-11-19T05:11:41;3.80;;;1.10;;
9254;SDS011;4663;49.120;9.730;2023-11-19T05:14:08;3.22;;;1.00;;
9254;SDS011;4663;49.120;9.730;2023-11-19T05:16:34;0.90;;;0.90;;
9254;SDS011;4663;49.120;9.730;2023-11-19T05:19:00;1.15;;;0.95;;
9254;SDS011;4663;49.120;9.730;2023-11-19T05:21:25;1.33;;;0.93;;
9254;SDS011;4663;49.120;9.730;2023-11-19T05:23:51;1.27;;;1.00;;
9254;SDS011;4663;49.120;9.730;2023-11-19T05:26:20;1.08;;;0.98;;
9254;SDS011;4663;49.120;9.730;2023-11-19T05:28:46;0.80;;;0.80;;
9254;SDS011;4663;49.120;9.730;2023-11-19T05:31:12;0.80;;;0.80;;
9254;SDS011;4663;49.120;9.730;2023-11-19T05:33:37;2.72;;;0.80;;
9254;SDS011;4663;49.120;9.730;2023-11-19T05:36:03;0.80;;;0.80;;
9254;SDS011;4663;49.120;9.730;2023-11-19T05:38:29;1.73;;;0.80;;
9254;SDS011;4663;49.120;9.730;2023-11-19T05:40:55;0.63;;;0.63;;
9254;SDS011;4663;49.120;9.730;2023-11-19T05:43:20;1.10;;;1.00;;
9254;SDS011;4663;49.120;9.730;2023-11-19T05:45:46;0.95;;;0.90;;
9254;SDS011;4663;49.120;9.730;2023-11-19T05:48:11;0.80;;;0.80;;
9254;SDS011;4663;49.120;9.730;2023-11-19T05:50:37;1.60;;;1.10;;
9254;SDS011;4663;49.120;9.730;2023-11-19T05:53:03;1.70;;;1.17;;
9254;SDS011;4663;49.120;9.730;2023-11-19T05:55:33;1.27;;;0.98;;
9254;SDS011;4663;49.120;9.730;2023-11-19T05:57:59;1.45;;;1.30;;
9254;SDS011;4663;49.120;9.730;2023-11-19T06:00:25;2.13;;;1.38;;
9254;SDS011;4663;49.120;9.730;2023-11-19T06:02:51;1.23;;;1.13;;
9254;SDS011;4663;49.120;9.730;2023-11-19T06:05:17;2.20;;;1.27;;
9254;SDS011;4663;49.120;9.730;2023-11-19T06:07:42;2.63;;;1.30;;
9254;SDS011;4663;49.120;9.730;2023-11-19T06:10:08;1.52;;;1.15;;
9254;SDS011;4663;49.120;9.730;2023-11-19T06:12:34;1.55;;;1.10;;
9254;SDS011;4663;49.120;9.730;2023-11-19T06:15:06;4.20;;;1.45;;
9254;SDS011;4663;49.120;9.730;2023-11-19T06:17:33;2.10;;;1.40;;
9254;SDS011;4663;49.120;9.730;2023-11-19T06:19:59;8.23;;;1.63;;
9254;SDS011;4663;49.120;9.730;2023-11-19T06:22:25;3.75;;;1.65;;
9254;SDS011;4663;49.120;9.730;2023-11-19T06:24:50;2.47;;;1.50;;
9254;SDS011;4663;49.120;9.730;2023-11-19T06:27:15;3.40;;;1.40;;
9254;SDS011;4663;49.120;9.730;2023-11-19T06:29:41;4.20;;;1.60;;
9254;SDS011;4663;49.120;9.730;2023-11-19T06:32:07;1.58;;;1.30;;
9254;SDS011;4663;49.120;9.730;2023-11-19T06:34:33;5.40;;;1.80;;
9254;SDS011;4663;49.120;9.730;2023-11-19T06:36:59;5.10;;;2.00;;
9254;SDS011;4663;49.120;9.730;2023-11-19T06:39:24;4.15;;;1.65;;
9254;SDS011;4663;49.120;9.730;2023-11-19T06:41:50;2.10;;;1.73;;
9254;SDS011;4663;49.120;9.730;2023-11-19T06:44:15;5.30;;;2.25;;
9254;SDS011;4663;49.120;9.730;2023-11-19T06:46:41;3.03;;;1.83;;
9254;SDS011;4663;49.120;9.730;2023-11-19T06:49:06;2.88;;;2.05;;
9254;SDS011;4663;49.120;9.730;2023-11-19T06:51:33;7.22;;;2.50;;
9254;SDS011;4663;49.120;9.730;2023-11-19T06:53:59;2.42;;;1.75;;
9254;SDS011;4663;49.120;9.730;2023-11-19T06:56:24;2.55;;;1.80;;
9254;SDS011;4663;49.120;9.730;2023-11-19T06:58:50;2.67;;;2.10;;
9254;SDS011;4663;49.120;9.730;2023-11-19T07:01:17;3.63;;;1.90;;
9254;SDS011;4663;49.120;9.730;2023-11-19T07:03:44;3.30;;;1.77;;
9254;SDS011;4663;49.120;9.730;2023-11-19T07:06:11;3.33;;;1.90;;
9254;SDS011;4663;49.120;9.730;2023-11-19T07:08:37;7.82;;;2.80;;
9254;SDS011;4663;49.120;9.730;2023-11-19T07:11:03;3.30;;;2.13;;
9254;SDS011;4663;49.120;9.730;2023-11-19T07:13:29;2.53;;;2.08;;
9254;SDS011;4663;49.120;9.730;2023-11-19T07:15:55;5.75;;;2.42;;
9254;SDS011;4663;49.120;9.730;2023-11-19T07:18:21;2.38;;;1.98;;
9254;SDS011;4663;49.120;9.730;2023-11-19T07:20:47;3.22;;;2.00;;
9254;SDS011;4663;49.120;9.730;2023-11-19T07:23:13;3.75;;;1.85;;
9254;SDS011;4663;49.120;9.730;2023-11-19T07:25:39;3.28;;;2.15;;
9254;SDS011;4663;49.120;9.730;2023-11-19T07:28:05;5.75;;;2.17;;
9254;SDS011;4663;49.120;9.730;2023-11-19T07:30:30;2.83;;;1.70;;
9254;SDS011;4663;49.120;9.730;2023-11-19T07:32:56;2.63;;;1.80;;
9254;SDS011;4663;49.120;9.730;2023-11-19T07:35:21;4.03;;;1.67;;
9254;SDS011;4663;49.120;9.730;2023-11-19T07:37:47;1.73;;;1.50;;
9254;SDS011;4663;49.120;9.730;2023-11-19T07:40:12;2.00;;;1.55;;
9254;SDS011;4663;49.120;9.730;2023-11-19T07:42:38;1.50;;;1.40;;
9254;SDS011;4663;49.120;9.730;2023-11-19T07:45:03;2.20;;;1.58;;
9254;SDS011;4663;49.120;9.730;2023-11-19T07:47:30;2.50;;;1.75;;
9254;SDS011;4663;49.120;9.730;2023-11-19T07:49:56;4.28;;;1.63;;
9254;SDS011;4663;49.120;9.730;2023-11-19T07:52:21;3.45;;;1.80;;
9254;SDS011;4663;49.120;9.730;2023-11-19T07:54:46;2.53;;;1.40;;
9254;SDS011;4663;49.120;9.730;2023-11-19T07:57:12;2.03;;;1.48;;
9254;SDS011;4663;49.120;9.730;2023-11-19T07:59:37;1.95;;;1.60;;
9254;SDS011;4663;49.120;9.730;2023-11-19T08:02:02;2.30;;;1.75;;
9254;SDS011;4663;49.120;9.730;2023-11-19T08:04:30;5.15;;;1.50;;
9254;SDS011;4663;49.120;9.730;2023-11-19T08:06:55;4.88;;;1.58;;
9254;SDS011;4663;49.120;9.730;2023-11-19T08:09:20;5.15;;;1.80;;
9254;SDS011;4663;49.120;9.730;2023-11-19T08:11:46;3.50;;;1.80;;
9254;SDS011;4663;49.120;9.730;2023-11-19T08:14:11;2.10;;;1.60;;
9254;SDS011;4663;49.120;9.730;2023-11-19T08:16:36;3.70;;;1.77;;
9254;SDS011;4663;49.120;9.730;2023-11-19T08:19:03;4.40;;;1.60;;
9254;SDS011;4663;49.120;9.730;2023-11-19T08:21:29;1.70;;;1.23;;
9254;SDS011;4663;49.120;9.730;2023-11-19T08:23:54;4.60;;;1.85;;
9254;SDS011;4663;49.120;9.730;2023-11-19T08:26:19;2.20;;;1.60;;
9254;SDS011;4663;49.120;9.730;2023-11-19T08:28:45;6.45;;;1.95;;
9254;SDS011;4663;49.120;9.730;2023-11-19T08:31:10;3.13;;;1.60;;
9254;SDS011;4663;49.120;9.730;2023-11-19T08:33:36;6.82;;;1.80;;
9254;SDS011;4663;49.120;9.730;2023-11-19T08:36:01;4.30;;;1.95;;
9254;SDS011;4663;49.120;9.730;2023-11-19T08:38:28;2.92;;;1.65;;
9254;SDS011;4663;49.120;9.730;2023-11-19T08:40:54;3.63;;;2.33;;
9254;SDS011;4663;49.120;9.730;2023-11-19T08:43:24;3.85;;;2.00;;
9254;SDS011;4663;49.120;9.730;2023-11-19T08:45:50;1.90;;;1.65;;
9254;SDS011;4663;49.120;9.730;2023-11-19T08:48:16;3.83;;;1.38;;
9254;SDS011;4663;49.120;9.730;2023-11-19T08:50:41;1.90;;;1.65;;
9254;SDS011;4663;49.120;9.730;2023-11-19T08:53:06;2.05;;;1.50;;
9254;SDS011;4663;49.120;9.730;2023-11-19T08:55:32;2.10;;;1.70;;
9254;SDS011;4663;49.120;9.730;2023-11-19T08:57:57;1.30;;;1.20;;
9254;SDS011;4663;49.120;9.730;2023-11-19T09:00:23;4.38;;;1.35;;
9254;SDS011;4663;49.120;9.730;2023-11-19T09:02:48;1.30;;;1.20;;
9254;SDS011;4663;49.120;9.730;2023-11-19T09:05:14;3.25;;;1.50;;
9254;SDS011;4663;49.120;9.730;2023-11-19T09:07:39;2.15;;;1.67;;
9254;SDS011;4663;49.120;9.730;2023-11-19T09:10:04;5.28;;;1.88;;
9254;SDS011;4663;49.120;9.730;2023-11-19T09:12:30;2.22;;;1.75;;
9254;SDS011;4663;49.120;9.730;2023-11-19T09:14:56;2.65;;;1.60;;
9254;SDS011;4663;49.120;9.730;2023-11-19T09:17:21;2.00;;;1.50;;
9254;SDS011;4663;49.120;9.730;2023-11-19T09:19:47;2.92;;;1.20;;
9254;SDS011;4663;49.120;9.730;2023-11-19T09:22:12;4.47;;;2.45;;
9254;SDS011;4663;49.120;9.730;2023-11-19T09:24:37;3.13;;;1.67;;
9254;SDS011;4663;49.120;9.730;2023-11-19T09:27:03;3.97;;;1.83;;
9254;SDS011;4663;49.120;9.730;2023-11-19T09:29:31;2.45;;;1.60;;
9254;SDS011;4663;49.120;9.730;2023-11-19T09:31:56;2.25;;;1.50;;
9254;SDS011;4663;49.120;9.730;2023-11-19T09:34:22;2.33;;;1.48;;
9254;SDS011;4663;49.120;9.730;2023-11-19T09:36:48;3.38;;;1.60;;
9254;SDS011;4663;49.120;9.730;2023-11-19T09:39:13;1.98;;;1.67;;
9254;SDS011;4663;49.120;9.730;2023-11-19T09:41:43;2.42;;;1.30;;
9254;SDS011;4663;49.120;9.730;2023-11-19T09:44:10;1.95;;;1.30;;
9254;SDS011;4663;49.120;9.730;2023-11-19T09:46:36;1.33;;;1.17;;
9254;SDS011;4663;49.120;9.730;2023-11-19T09:49:04;1.63;;;1.10;;
9254;SDS011;4663;49.120;9.730;2023-11-19T09:51:32;2.75;;;1.30;;
9254;SDS011;4663;49.120;9.730;2023-11-19T09:53:58;3.60;;;1.33;;
9254;SDS011;4663;49.120;9.730;2023-11-19T09:56:23;2.13;;;1.50;;
9254;SDS011;4663;49.120;9.730;2023-11-19T09:58:49;2.05;;;1.50;;
9254;SDS011;4663;49.120;9.730;2023-11-19T10:01:14;2.30;;;1.40;;
9254;SDS011;4663;49.120;9.730;2023-11-19T10:03:40;2.72;;;1.45;;
9254;SDS011;4663;49.120;9.730;2023-11-19T10:06:06;2.97;;;1.60;;
9254;SDS011;4663;49.120;9.730;2023-11-19T10:08:32;1.67;;;1.20;;
9254;SDS011;4663;49.120;9.730;2023-11-19T10:10:58;3.17;;;1.40;;
9254;SDS011;4663;49.120;9.730;2023-11-19T10:13:30;7.10;;;1.30;;
9254;SDS011;4663;49.120;9.730;2023-11-19T10:15:56;0.98;;;0.80;;
9254;SDS011;4663;49.120;9.730;2023-11-19T10:18:27;3.15;;;1.13;;
9254;SDS011;4663;49.120;9.730;2023-11-19T10:20:53;2.70;;;1.17;;
9254;SDS011;4663;49.120;9.730;2023-11-19T10:23:19;2.55;;;1.15;;
9254;SDS011;4663;49.120;9.730;2023-11-19T10:25:45;3.05;;;1.08;;
9254;SDS011;4663;49.120;9.730;2023-11-19T10:28:11;4.40;;;0.90;;
9254;SDS011;4663;49.120;9.730;2023-11-19T10:30:36;7.68;;;1.38;;
9254;SDS011;4663;49.120;9.730;2023-11-19T10:33:05;1.05;;;1.00;;
9254;SDS011;4663;49.120;9.730;2023-11-19T10:35:34;2.20;;;0.93;;
9254;SDS011;4663;49.120;9.730;2023-11-19T10:38:24;1.02;;;0.70;;
9254;SDS011;4663;49.120;9.730;2023-11-19T10:40:50;1.95;;;1.75;;
9254;SDS011;4663;49.120;9.730;2023-11-19T10:43:16;1.80;;;0.93;;
9254;SDS011;4663;49.120;9.730;2023-11-19T10:45:42;1.10;;;1.00;;
9254;SDS011;4663;49.120;9.730;2023-11-19T10:48:08;1.60;;;1.20;;
9254;SDS011;4663;49.120;9.730;2023-11-19T10:50:35;7.07;;;1.30;;
9254;SDS011;4663;49.120;9.730;2023-11-19T10:53:02;3.45;;;1.05;;
9254;SDS011;4663;49.120;9.730;2023-11-19T10:55:29;1.20;;;0.98;;
9254;SDS011;4663;49.120;9.730;2023-11-19T10:58:00;3.33;;;1.15;;
9254;SDS011;4663;49.120;9.730;2023-11-19T11:00:30;3.00;;;1.17;;
9254;SDS011;4663;49.120;9.730;2023-11-19T11:03:10;1.90;;;1.02;;
9254;SDS011;4663;49.120;9.730;2023-11-19T11:05:40;0.65;;;0.65;;
9254;SDS011;4663;49.120;9.730;2023-11-19T11:08:06;0.70;;;0.70;;
9254;SDS011;4663;49.120;9.730;2023-11-19T11:10:33;3.25;;;0.90;;
9254;SDS011;4663;49.120;9.730;2023-11-19T11:13:03;7.00;;;1.00;;
9254;SDS011;4663;49.120;9.730;2023-11-19T11:15:30;0.70;;;0.70;;
9254;SDS011;4663;49.120;9.730;2023-11-19T11:18:00;2.45;;;1.67;;
9254;SDS011;4663;49.120;9.730;2023-11-19T11:20:29;2.42;;;0.80;;
9254;SDS011;4663;49.120;9.730;2023-11-19T11:29:04;2.17;;;0.82;;
9254;SDS011;4663;49.120;9.730;2023-11-19T11:34:33;0.93;;;0.70;;
9254;SDS011;4663;49.120;9.730;2023-11-19T11:40:03;4.15;;;0.80;;
9254;SDS011;4663;49.120;9.730;2023-11-19T11:42:35;1.35;;;0.85;;
9254;SDS011;4663;49.120;9.730;2023-11-19T11:45:05;3.10;;;1.30;;
9254;SDS011;4663;49.120;9.730;2023-11-19T11:55:36;3.80;;;0.82;;
9254;SDS011;4663;49.120;9.730;2023-11-19T11:58:02;1.10;;;0.98;;
9254;SDS011;4663;49.120;9.730;2023-11-19T12:03:00;1.23;;;1.00;;
9254;SDS011;4663;49.120;9.730;2023-11-19T12:05:26;3.70;;;0.90;;
9254;SDS011;4663;49.120;9.730;2023-11-19T12:07:55;2.40;;;0.80;;
9254;SDS011;4663;49.120;9.730;2023-11-19T12:10:26;2.85;;;1.33;;
9254;SDS011;4663;49.120;9.730;2023-11-19T12:13:01;3.88;;;0.93;;
9254;SDS011;4663;49.120;9.730;2023-11-19T12:15:27;5.40;;;1.52;;
9254;SDS011;4663;49.120;9.730;2023-11-19T12:17:53;4.00;;;1.10;;
9254;SDS011;4663;49.120;9.730;2023-11-19T12:20:21;1.67;;;1.08;;
9254;SDS011;4663;49.120;9.730;2023-11-19T12:22:48;1.58;;;0.70;;
9254;SDS011;4663;49.120;9.730;2023-11-19T12:25:14;2.08;;;1.40;;
9254;SDS011;4663;49.120;9.730;2023-11-19T12:27:45;2.53;;;1.15;;
9254;SDS011;4663;49.120;9.730;2023-11-19T12:30:17;2.33;;;1.30;;
9254;SDS011;4663;49.120;9.730;2023-11-19T12:32:54;2.28;;;0.80;;
9254;SDS011;4663;49.120;9.730;2023-11-19T12:35:19;3.22;;;0.70;;
9254;SDS011;4663;49.120;9.730;2023-11-19T12:37:48;1.05;;;0.60;;
9254;SDS011;4663;49.120;9.730;2023-11-19T12:45:16;1.33;;;0.90;;
9254;SDS011;4663;49.120;9.730;2023-11-19T12:47:42;1.58;;;1.05;;
9254;SDS011;4663;49.120;9.730;2023-11-19T12:50:09;3.67;;;0.80;;
9254;SDS011;4663;49.120;9.730;2023-11-19T12:52:38;5.53;;;1.23;;
9254;SDS011;4663;49.120;9.730;2023-11-19T12:57:55;0.80;;;0.80;;
9254;SDS011;4663;49.120;9.730;2023-11-19T13:00:21;2.30;;;1.00;;
9254;SDS011;4663;49.120;9.730;2023-11-19T13:02:49;1.98;;;1.30;;
9254;SDS011;4663;49.120;9.730;2023-11-19T13:05:31;2.75;;;1.08;;
9254;SDS011;4663;49.120;9.730;2023-11-19T13:08:08;5.15;;;0.80;;
9254;SDS011;4663;49.120;9.730;2023-11-19T13:10:55;2.17;;;0.80;;
9254;SDS011;4663;49.120;9.730;2023-11-19T13:13:20;1.48;;;0.82;;
9254;SDS011;4663;49.120;9.730;2023-11-19T13:15:45;2.17;;;0.77;;
9254;SDS011;4663;49.120;9.730;2023-11-19T13:18:11;1.98;;;1.10;;
9254;SDS011;4663;49.120;9.730;2023-11-19T13:20:37;1.45;;;0.80;;
9254;SDS011;4663;49.120;9.730;2023-11-19T13:23:04;1.88;;;1.00;;
9254;SDS011;4663;49.120;9.730;2023-11-19T13:25:30;2.30;;;1.00;;
9254;SDS011;4663;49.120;9.730;2023-11-19T13:27:57;1.60;;;0.80;;
9254;SDS011;4663;49.120;9.730;2023-11-19T13:30:23;2.75;;;0.95;;
9254;SDS011;4663;49.120;9.730;2023-11-19T13:32:49;1.70;;;0.80;;
9254;SDS011;4663;49.120;9.730;2023-11-19T13:35:16;0.73;;;0.52;;
9254;SDS011;4663;49.120;9.730;2023-11-19T13:37:42;1.35;;;1.00;;
9254;SDS011;4663;49.120;9.730;2023-11-19T13:40:07;3.55;;;1.20;;
9254;SDS011;4663;49.120;9.730;2023-11-19T13:42:35;4.65;;;1.27;;
9254;SDS011;4663;49.120;9.730;2023-11-19T13:45:01;0.77;;;0.70;;
9254;SDS011;4663;49.120;9.730;2023-11-19T13:47:28;2.95;;;0.88;;
9254;SDS011;4663;49.120;9.730;2023-11-19T13:49:53;3.75;;;0.80;;
9254;SDS011;4663;49.120;9.730;2023-11-19T13:52:19;1.25;;;0.90;;
9254;SDS011;4663;49.120;9.730;2023-11-19T13:54:44;4.10;;;1.83;;
9254;SDS011;4663;49.120;9.730;2023-11-19T13:57:10;0.93;;;0.88;;
9254;SDS011;4663;49.120;9.730;2023-11-19T13:59:39;1.23;;;0.93;;
9254;SDS011;4663;49.120;9.730;2023-11-19T14:02:06;1.33;;;0.70;;
9254;SDS011;4663;49.120;9.730;2023-11-19T14:04:32;3.22;;;0.90;;
9254;SDS011;4663;49.120;9.730;2023-11-19T14:06:58;1.10;;;0.93;;
9254;SDS011;4663;49.120;9.730;2023-11-19T14:09:23;1.30;;;0.80;;
9254;SDS011;4663;49.120;9.730;2023-11-19T14:11:49;1.55;;;0.88;;
9254;SDS011;4663;49.120;9.730;2023-11-19T14:14:16;1.58;;;0.98;;
9254;SDS011;4663;49.120;9.730;2023-11-19T14:16:41;3.97;;;1.75;;
9254;SDS011;4663;49.120;9.730;2023-11-19T14:19:07;2.90;;;1.20;;
9254;SDS011;4663;49.120;9.730;2023-11-19T14:21:33;6.18;;;1.90;;
9254;SDS011;4663;49.120;9.730;2023-11-19T14:23:58;1.35;;;0.90;;
9254;SDS011;4663;49.120;9.730;2023-11-19T14:26:24;2.03;;;1.10;;
9254;SDS011;4663;49.120;9.730;2023-11-19T14:28:49;4.15;;;1.08;;
9254;SDS011;4663;49.120;9.730;2023-11-19T14:31:14;2.53;;;1.13;;
9254;SDS011;4663;49.120;9.730;2023-11-19T14:33:40;2.05;;;0.73;;
9254;SDS011;4663;49.120;9.730;2023-11-19T14:36:06;1.30;;;0.77;;
9254;SDS011;4663;49.120;9.730;2023-11-19T14:38:32;1.73;;;0.80;;
9254;SDS011;4663;49.120;9.730;2023-11-19T14:40:58;1.83;;;0.82;;
9254;SDS011;4663;49.120;9.730;2023-11-19T14:43:24;4.53;;;1.00;;
9254;SDS011;4663;49.120;9.730;2023-11-19T14:45:50;1.98;;;0.90;;
9254;SDS011;4663;49.120;9.730;2023-11-19T14:48:15;5.32;;;0.98;;
9254;SDS011;4663;49.120;9.730;2023-11-19T14:50:42;5.45;;;0.93;;
9254;SDS011;4663;49.120;9.730;2023-11-19T14:53:09;1.10;;;0.90;;
9254;SDS011;4663;49.120;9.730;2023-11-19T14:55:35;3.05;;;0.95;;
9254;SDS011;4663;49.120;9.730;2023-11-19T14:58:00;1.98;;;1.00;;
9254;SDS011;4663;49.120;9.730;2023-11-19T15:00:26;0.80;;;0.80;;
9254;SDS011;4663;49.120;9.730;2023-11-19T15:02:51;4.43;;;0.80;;
9254;SDS011;4663;49.120;9.730;2023-11-19T15:05:17;2.20;;;1.25;;
9254;SDS011;4663;49.120;9.730;2023-11-19T15:07:42;2.15;;;0.88;;
9254;SDS011;4663;49.120;9.730;2023-11-19T15:10:08;1.50;;;1.00;;
9254;SDS011;4663;49.120;9.730;2023-11-19T15:12:38;4.82;;;1.00;;
9254;SDS011;4663;49.120;9.730;2023-11-19T15:15:07;3.58;;;0.80;;
9254;SDS011;4663;49.120;9.730;2023-11-19T15:17:40;1.33;;;0.75;;
9254;SDS011;4663;49.120;9.730;2023-11-19T15:20:06;2.58;;;0.80;;
9254;SDS011;4663;49.120;9.730;2023-11-19T15:22:31;3.05;;;1.27;;
9254;SDS011;4663;49.120;9.730;2023-11-19T15:24:57;1.48;;;1.10;;
9254;SDS011;4663;49.120;9.730;2023-11-19T15:27:22;2.75;;;1.23;;
9254;SDS011;4663;49.120;9.730;2023-11-19T15:29:48;1.40;;;0.98;;
9254;SDS011;4663;49.120;9.730;2023-11-19T15:32:13;1.48;;;0.95;;
9254;SDS011;4663;49.120;9.730;2023-11-19T15:34:39;2.45;;;0.90;;
9254;SDS011;4663;49.120;9.730;2023-11-19T15:37:06;1.23;;;0.80;;
9254;SDS011;4663;49.120;9.730;2023-11-19T15:39:32;1.60;;;1.08;;
9254;SDS011;4663;49.120;9.730;2023-11-19T15:41:58;3.88;;;0.90;;
9254;SDS011;4663;49.120;9.730;2023-11-19T15:44:24;2.33;;;1.15;;